sensor_id;sensor_type;location;lat;lon;timestamp;temperature;humidity
4828;DHT22;2428;48.732;9.148;2022-10-30T00:01:57;16.90;99.90
4828;DHT22;2428;48.732;9.148;2022-10-30T00:04:22;16.90;99.90
4828;DHT22;2428;48.732;9.148;2022-10-30T00:06:48;16.90;99.90
4828;DHT22;2428;48.732;9.148;2022-10-30T00:09:14;16.90;99.90
4828;DHT22;2428;48.732;9.148;2022-10-30T00:11:40;16.90;99.90
4828;DHT22;2428;48.732;9.148;2022-10-30T00:14:07;16.90;99.90
4828;DHT22;2428;48.732;9.148;2022-10-30T00:16:32;16.90;99.90
4828;DHT22;2428;48.732;9.148;2022-10-30T00:18:58;16.90;99.90
4828;DHT22;2428;48.732;9.148;2022-10-30T00:21:24;16.90;99.90
4828;DHT22;2428;48.732;9.148;2022-10-30T00:23:51;16.90;99.90
4828;DHT22;2428;48.732;9.148;2022-10-30T00:26:19;16.90;99.90
4828;DHT22;2428;48.732;9.148;2022-10-30T00:28:52;16.90;99.90
4828;DHT22;2428;48.732;9.148;2022-10-30T00:31:18;16.80;99.90
4828;DHT22;2428;48.732;9.148;2022-10-30T00:33:51;16.90;99.90
4828;DHT22;2428;48.732;9.148;2022-10-30T00:36:17;16.90;99.90
4828;DHT22;2428;48.732;9.148;2022-10-30T00:38:42;16.90;99.90
4828;DHT22;2428;48.732;9.148;2022-10-30T00:41:16;16.90;99.90
4828;DHT22;2428;48.732;9.148;2022-10-30T00:43:42;17.00;99.90
4828;DHT22;2428;48.732;9.148;2022-10-30T00:46:23;17.00;99.90
4828;DHT22;2428;48.732;9.148;2022-10-30T00:48:59;17.00;99.90
4828;DHT22;2428;48.732;9.148;2022-10-30T00:51:27;17.00;99.90
4828;DHT22;2428;48.732;9.148;2022-10-30T00:53:55;16.90;99.90
4828;DHT22;2428;48.732;9.148;2022-10-30T00:56:22;16.90;99.90
4828;DHT22;2428;48.732;9.148;2022-10-30T00:59:02;16.90;99.90
4828;DHT22;2428;48.732;9.148;2022-10-30T01:01:33;16.90;99.90
4828;DHT22;2428;48.732;9.148;2022-10-30T01:04:01;16.90;99.90
4828;DHT22;2428;48.732;9.148;2022-10-30T01:06:28;17.00;99.90
4828;DHT22;2428;48.732;9.148;2022-10-30T01:08:54;17.00;99.90
4828;DHT22;2428;48.732;9.148;2022-10-30T01:11:20;17.00;99.90
4828;DHT22;2428;48.732;9.148;2022-10-30T01:13:48;16.90;99.90
4828;DHT22;2428;48.732;9.148;2022-10-30T01:24:36;16.90;99.90
4828;DHT22;2428;48.732;9.148;2022-10-30T01:30:14;17.00;99.90
4828;DHT22;2428;48.732;9.148;2022-10-30T01:35:42;16.90;99.90
4828;DHT22;2428;48.732;9.148;2022-10-30T01:38:26;16.80;99.90
4828;DHT22;2428;48.732;9.148;2022-10-30T01:40:53;16.70;99.90
4828;DHT22;2428;48.732;9.148;2022-10-30T01:43:19;16.60;99.90
4828;DHT22;2428;48.732;9.148;2022-10-30T01:48:36;16.50;99.90
4828;DHT22;2428;48.732;9.148;2022-10-30T01:58:59;16.10;99.90
4828;DHT22;2428;48.732;9.148;2022-10-30T02:01:27;16.10;99.90
4828;DHT22;2428;48.732;9.148;2022-10-30T02:03:55;16.00;99.90
4828;DHT22;2428;48.732;9.148;2022-10-30T02:06:21;16.00;99.90
4828;DHT22;2428;48.732;9.148;2022-10-30T02:08:47;16.00;99.90
4828;DHT22;2428;48.732;9.148;2022-10-30T02:11:12;16.00;99.90
4828;DHT22;2428;48.732;9.148;2022-10-30T02:13:39;16.10;99.90
4828;DHT22;2428;48.732;9.148;2022-10-30T02:16:05;16.10;99.90
4828;DHT22;2428;48.732;9.148;2022-10-30T02:18:30;16.20;99.90
4828;DHT22;2428;48.732;9.148;2022-10-30T02:20:56;16.20;99.90
4828;DHT22;2428;48.732;9.148;2022-10-30T02:23:21;16.20;99.90
4828;DHT22;2428;48.732;9.148;2022-10-30T02:25:47;16.10;99.90
4828;DHT22;2428;48.732;9.148;2022-10-30T02:28:13;16.10;99.90
4828;DHT22;2428;48.732;9.148;2022-10-30T02:30:39;16.10;99.90
4828;DHT22;2428;48.732;9.148;2022-10-30T02:33:08;16.10;99.90
4828;DHT22;2428;48.732;9.148;2022-10-30T02:35:34;16.10;99.90
4828;DHT22;2428;48.732;9.148;2022-10-30T02:37:59;16.00;99.90
4828;DHT22;2428;48.732;9.148;2022-10-30T02:40:25;15.90;99.90
4828;DHT22;2428;48.732;9.148;2022-10-30T02:42:52;15.90;99.90
4828;DHT22;2428;48.732;9.148;2022-10-30T02:45:19;15.90;99.90
4828;DHT22;2428;48.732;9.148;2022-10-30T02:47:44;15.80;99.90
4828;DHT22;2428;48.732;9.148;2022-10-30T02:50:10;15.70;99.90
4828;DHT22;2428;48.732;9.148;2022-10-30T02:52:36;15.70;99.90
4828;DHT22;2428;48.732;9.148;2022-10-30T02:55:01;15.70;99.90
4828;DHT22;2428;48.732;9.148;2022-10-30T02:57:27;15.60;99.90
4828;DHT22;2428;48.732;9.148;2022-10-30T02:59:52;15.50;99.90
4828;DHT22;2428;48.732;9.148;2022-10-30T03:02:18;15.50;99.90
4828;DHT22;2428;48.732;9.148;2022-10-30T03:04:43;15.50;99.90
4828;DHT22;2428;48.732;9.148;2022-10-30T03:07:09;15.40;99.90
4828;DHT22;2428;48.732;9.148;2022-10-30T03:09:34;15.40;99.90
4828;DHT22;2428;48.732;9.148;2022-10-30T03:12:00;15.40;99.90
4828;DHT22;2428;48.732;9.148;2022-10-30T03:14:25;15.30;99.90
4828;DHT22;2428;48.732;9.148;2022-10-30T03:16:51;15.30;99.90
4828;DHT22;2428;48.732;9.148;2022-10-30T03:19:17;15.30;99.90
4828;DHT22;2428;48.732;9.148;2022-10-30T03:21:44;15.30;99.90
4828;DHT22;2428;48.732;9.148;2022-10-30T03:24:09;15.30;99.90
4828;DHT22;2428;48.732;9.148;2022-10-30T03:26:35;15.20;99.90
4828;DHT22;2428;48.732;9.148;2022-10-30T03:29:00;15.20;99.90
4828;DHT22;2428;48.732;9.148;2022-10-30T03:31:26;15.10;99.90
4828;DHT22;2428;48.732;9.148;2022-10-30T03:33:51;15.10;99.90
4828;DHT22;2428;48.732;9.148;2022-10-30T03:36:17;15.00;99.90
4828;DHT22;2428;48.732;9.148;2022-10-30T03:38:42;15.00;99.90
4828;DHT22;2428;48.732;9.148;2022-10-30T03:41:08;15.00;99.90
4828;DHT22;2428;48.732;9.148;2022-10-30T03:43:34;14.90;99.90
4828;DHT22;2428;48.732;9.148;2022-10-30T03:46:00;14.90;99.90
4828;DHT22;2428;48.732;9.148;2022-10-30T03:48:27;14.90;99.90
4828;DHT22;2428;48.732;9.148;2022-10-30T03:50:54;14.80;99.90
4828;DHT22;2428;48.732;9.148;2022-10-30T03:53:20;14.80;99.90
4828;DHT22;2428;48.732;9.148;2022-10-30T03:55:48;14.80;99.90
4828;DHT22;2428;48.732;9.148;2022-10-30T03:58:14;14.70;99.90
4828;DHT22;2428;48.732;9.148;2022-10-30T04:00:40;14.70;99.90
4828;DHT22;2428;48.732;9.148;2022-10-30T04:03:06;14.70;99.90
4828;DHT22;2428;48.732;9.148;2022-10-30T04:05:33;14.70;99.90
4828;DHT22;2428;48.732;9.148;2022-10-30T04:08:00;14.60;99.90
4828;DHT22;2428;48.732;9.148;2022-10-30T04:10:27;14.60;99.90
4828;DHT22;2428;48.732;9.148;2022-10-30T04:13:02;14.60;99.90
4828;DHT22;2428;48.732;9.148;2022-10-30T04:15:28;14.60;99.90
4828;DHT22;2428;48.732;9.148;2022-10-30T04:17:54;14.60;99.90
4828;DHT22;2428;48.732;9.148;2022-10-30T04:20:21;14.60;99.90
4828;DHT22;2428;48.732;9.148;2022-10-30T04:22:47;14.60;99.90
4828;DHT22;2428;48.732;9.148;2022-10-30T04:25:13;14.60;99.90
4828;DHT22;2428;48.732;9.148;2022-10-30T04:27:43;14.60;99.90
4828;DHT22;2428;48.732;9.148;2022-10-30T04:30:10;14.60;99.90
4828;DHT22;2428;48.732;9.148;2022-10-30T04:32:45;14.60;99.90
4828;DHT22;2428;48.732;9.148;2022-10-30T04:35:10;14.60;99.90
4828;DHT22;2428;48.732;9.148;2022-10-30T04:37:36;14.50;99.90
4828;DHT22;2428;48.732;9.148;2022-10-30T04:40:01;14.50;99.90
4828;DHT22;2428;48.732;9.148;2022-10-30T04:42:27;14.50;99.90
4828;DHT22;2428;48.732;9.148;2022-10-30T04:44:53;14.40;99.90
4828;DHT22;2428;48.732;9.148;2022-10-30T04:47:18;14.40;99.90
4828;DHT22;2428;48.732;9.148;2022-10-30T04:49:44;14.40;99.90
4828;DHT22;2428;48.732;9.148;2022-10-30T04:52:10;14.40;99.90
4828;DHT22;2428;48.732;9.148;2022-10-30T04:54:35;14.30;99.90
4828;DHT22;2428;48.732;9.148;2022-10-30T04:57:01;14.20;99.90
4828;DHT22;2428;48.732;9.148;2022-10-30T04:59:26;14.10;99.90
4828;DHT22;2428;48.732;9.148;2022-10-30T05:01:52;14.10;99.90
4828;DHT22;2428;48.732;9.148;2022-10-30T05:04:17;14.10;99.90
4828;DHT22;2428;48.732;9.148;2022-10-30T05:06:43;14.00;99.90
4828;DHT22;2428;48.732;9.148;2022-10-30T05:09:08;14.00;99.90
4828;DHT22;2428;48.732;9.148;2022-10-30T05:11:34;13.90;99.90
4828;DHT22;2428;48.732;9.148;2022-10-30T05:13:59;13.90;99.90
4828;DHT22;2428;48.732;9.148;2022-10-30T05:16:25;13.80;99.90
4828;DHT22;2428;48.732;9.148;2022-10-30T05:18:50;13.80;99.90
4828;DHT22;2428;48.732;9.148;2022-10-30T05:21:16;13.80;99.90
4828;DHT22;2428;48.732;9.148;2022-10-30T05:23:42;13.70;99.90
4828;DHT22;2428;48.732;9.148;2022-10-30T05:26:07;13.70;99.90
4828;DHT22;2428;48.732;9.148;2022-10-30T05:28:33;13.60;99.90
4828;DHT22;2428;48.732;9.148;2022-10-30T05:30:58;13.60;99.90
4828;DHT22;2428;48.732;9.148;2022-10-30T05:33:24;13.60;99.90
4828;DHT22;2428;48.732;9.148;2022-10-30T05:35:49;13.60;99.90
4828;DHT22;2428;48.732;9.148;2022-10-30T05:38:15;13.50;99.90
4828;DHT22;2428;48.732;9.148;2022-10-30T05:40:40;13.60;99.90
4828;DHT22;2428;48.732;9.148;2022-10-30T05:43:06;13.50;99.90
4828;DHT22;2428;48.732;9.148;2022-10-30T05:45:32;13.50;99.90
4828;DHT22;2428;48.732;9.148;2022-10-30T05:47:59;13.50;99.90
4828;DHT22;2428;48.732;9.148;2022-10-30T05:50:26;13.50;99.90
4828;DHT22;2428;48.732;9.148;2022-10-30T05:52:59;13.50;99.90
4828;DHT22;2428;48.732;9.148;2022-10-30T05:55:26;13.50;99.90
4828;DHT22;2428;48.732;9.148;2022-10-30T05:57:55;13.50;99.90
4828;DHT22;2428;48.732;9.148;2022-10-30T06:00:21;13.50;99.90
4828;DHT22;2428;48.732;9.148;2022-10-30T06:02:47;13.50;99.90
4828;DHT22;2428;48.732;9.148;2022-10-30T06:05:13;13.50;99.90
4828;DHT22;2428;48.732;9.148;2022-10-30T06:07:38;13.40;99.90
4828;DHT22;2428;48.732;9.148;2022-10-30T06:10:04;13.50;99.90
4828;DHT22;2428;48.732;9.148;2022-10-30T06:12:30;13.50;99.90
4828;DHT22;2428;48.732;9.148;2022-10-30T06:14:56;13.50;99.90
4828;DHT22;2428;48.732;9.148;2022-10-30T06:17:21;13.50;99.90
4828;DHT22;2428;48.732;9.148;2022-10-30T06:19:47;13.50;99.90
4828;DHT22;2428;48.732;9.148;2022-10-30T06:22:12;13.50;99.90
4828;DHT22;2428;48.732;9.148;2022-10-30T06:24:38;13.50;99.90
4828;DHT22;2428;48.732;9.148;2022-10-30T06:27:03;13.50;99.90
4828;DHT22;2428;48.732;9.148;2022-10-30T06:29:29;13.50;99.90
4828;DHT22;2428;48.732;9.148;2022-10-30T06:31:54;13.50;99.90
4828;DHT22;2428;48.732;9.148;2022-10-30T06:34:20;13.50;99.90
4828;DHT22;2428;48.732;9.148;2022-10-30T06:36:45;13.50;99.90
4828;DHT22;2428;48.732;9.148;2022-10-30T06:39:11;13.50;99.90
4828;DHT22;2428;48.732;9.148;2022-10-30T06:41:37;13.50;99.90
4828;DHT22;2428;48.732;9.148;2022-10-30T06:44:02;13.50;99.90
4828;DHT22;2428;48.732;9.148;2022-10-30T06:46:28;13.60;99.90
4828;DHT22;2428;48.732;9.148;2022-10-30T06:48:53;13.50;99.90
4828;DHT22;2428;48.732;9.148;2022-10-30T06:51:19;13.60;99.90
4828;DHT22;2428;48.732;9.148;2022-10-30T06:53:45;13.60;99.90
4828;DHT22;2428;48.732;9.148;2022-10-30T06:56:10;13.70;99.90
4828;DHT22;2428;48.732;9.148;2022-10-30T06:58:36;13.70;99.90
4828;DHT22;2428;48.732;9.148;2022-10-30T07:01:06;13.80;99.90
4828;DHT22;2428;48.732;9.148;2022-10-30T07:03:32;13.90;99.90
4828;DHT22;2428;48.732;9.148;2022-10-30T07:05:58;13.90;99.90
4828;DHT22;2428;48.732;9.148;2022-10-30T07:08:24;13.90;99.90
4828;DHT22;2428;48.732;9.148;2022-10-30T07:10:49;14.00;99.90
4828;DHT22;2428;48.732;9.148;2022-10-30T07:13:15;14.00;99.90
4828;DHT22;2428;48.732;9.148;2022-10-30T07:15:41;14.10;99.90
4828;DHT22;2428;48.732;9.148;2022-10-30T07:18:09;14.20;99.90
4828;DHT22;2428;48.732;9.148;2022-10-30T07:20:35;14.20;99.90
4828;DHT22;2428;48.732;9.148;2022-10-30T07:23:01;14.20;99.90
4828;DHT22;2428;48.732;9.148;2022-10-30T07:25:28;14.30;99.90
4828;DHT22;2428;48.732;9.148;2022-10-30T07:27:55;14.20;99.90
4828;DHT22;2428;48.732;9.148;2022-10-30T07:30:22;14.10;99.90
4828;DHT22;2428;48.732;9.148;2022-10-30T07:33:02;14.20;99.90
4828;DHT22;2428;48.732;9.148;2022-10-30T07:35:29;14.30;99.90
4828;DHT22;2428;48.732;9.148;2022-10-30T07:37:55;14.30;99.90
4828;DHT22;2428;48.732;9.148;2022-10-30T07:40:21;14.40;99.90
4828;DHT22;2428;48.732;9.148;2022-10-30T07:42:46;14.40;99.90
4828;DHT22;2428;48.732;9.148;2022-10-30T07:45:12;14.50;99.90
4828;DHT22;2428;48.732;9.148;2022-10-30T07:47:41;14.60;99.90
4828;DHT22;2428;48.732;9.148;2022-10-30T07:50:08;14.60;99.90
4828;DHT22;2428;48.732;9.148;2022-10-30T07:52:34;14.70;99.90
4828;DHT22;2428;48.732;9.148;2022-10-30T07:54:59;14.80;99.90
4828;DHT22;2428;48.732;9.148;2022-10-30T07:57:25;15.00;99.90
4828;DHT22;2428;48.732;9.148;2022-10-30T07:59:51;15.00;99.90
4828;DHT22;2428;48.732;9.148;2022-10-30T08:02:16;15.10;99.90
4828;DHT22;2428;48.732;9.148;2022-10-30T08:04:42;15.20;99.90
4828;DHT22;2428;48.732;9.148;2022-10-30T08:07:07;15.30;99.90
4828;DHT22;2428;48.732;9.148;2022-10-30T08:09:33;15.40;99.90
4828;DHT22;2428;48.732;9.148;2022-10-30T08:11:58;15.50;99.90
4828;DHT22;2428;48.732;9.148;2022-10-30T08:14:24;15.60;99.90
4828;DHT22;2428;48.732;9.148;2022-10-30T08:16:50;15.70;99.90
4828;DHT22;2428;48.732;9.148;2022-10-30T08:19:16;15.80;99.90
4828;DHT22;2428;48.732;9.148;2022-10-30T08:21:41;15.90;99.90
4828;DHT22;2428;48.732;9.148;2022-10-30T08:24:07;16.10;99.90
4828;DHT22;2428;48.732;9.148;2022-10-30T08:26:33;16.40;99.90
4828;DHT22;2428;48.732;9.148;2022-10-30T08:28:59;16.40;99.90
4828;DHT22;2428;48.732;9.148;2022-10-30T08:31:25;16.50;99.90
4828;DHT22;2428;48.732;9.148;2022-10-30T08:33:50;16.60;99.90
4828;DHT22;2428;48.732;9.148;2022-10-30T08:36:16;16.70;99.90
4828;DHT22;2428;48.732;9.148;2022-10-30T08:38:41;16.80;99.90
4828;DHT22;2428;48.732;9.148;2022-10-30T08:41:07;17.00;99.90
4828;DHT22;2428;48.732;9.148;2022-10-30T08:43:32;17.20;99.90
4828;DHT22;2428;48.732;9.148;2022-10-30T08:45:58;17.60;99.90
4828;DHT22;2428;48.732;9.148;2022-10-30T08:48:24;18.60;99.90
4828;DHT22;2428;48.732;9.148;2022-10-30T08:50:49;19.80;99.90
4828;DHT22;2428;48.732;9.148;2022-10-30T08:53:15;20.50;99.90
4828;DHT22;2428;48.732;9.148;2022-10-30T08:55:41;20.90;99.90
4828;DHT22;2428;48.732;9.148;2022-10-30T08:58:06;20.90;99.90
4828;DHT22;2428;48.732;9.148;2022-10-30T09:00:32;20.70;99.90
4828;DHT22;2428;48.732;9.148;2022-10-30T09:02:58;20.60;99.90
4828;DHT22;2428;48.732;9.148;2022-10-30T09:05:24;20.50;99.90
4828;DHT22;2428;48.732;9.148;2022-10-30T09:07:55;20.20;99.90
4828;DHT22;2428;48.732;9.148;2022-10-30T09:10:20;20.00;99.90
4828;DHT22;2428;48.732;9.148;2022-10-30T09:12:46;19.70;99.90
4828;DHT22;2428;48.732;9.148;2022-10-30T09:15:11;19.60;99.90
4828;DHT22;2428;48.732;9.148;2022-10-30T09:17:37;19.60;99.90
4828;DHT22;2428;48.732;9.148;2022-10-30T09:20:03;19.70;99.90
4828;DHT22;2428;48.732;9.148;2022-10-30T09:22:29;19.80;99.90
4828;DHT22;2428;48.732;9.148;2022-10-30T09:24:54;20.10;99.90
4828;DHT22;2428;48.732;9.148;2022-10-30T09:27:20;20.60;99.90
4828;DHT22;2428;48.732;9.148;2022-10-30T09:29:45;21.10;99.90
4828;DHT22;2428;48.732;9.148;2022-10-30T09:32:11;21.50;99.90
4828;DHT22;2428;48.732;9.148;2022-10-30T09:34:36;21.40;99.90
4828;DHT22;2428;48.732;9.148;2022-10-30T09:37:04;22.20;99.90
4828;DHT22;2428;48.732;9.148;2022-10-30T09:39:29;23.60;99.90
4828;DHT22;2428;48.732;9.148;2022-10-30T09:48:08;25.00;99.90
4828;DHT22;2428;48.732;9.148;2022-10-30T09:56:17;22.30;99.90
4828;DHT22;2428;48.732;9.148;2022-10-30T09:58:59;21.20;99.90
4828;DHT22;2428;48.732;9.148;2022-10-30T10:01:46;20.80;99.90
4828;DHT22;2428;48.732;9.148;2022-10-30T10:04:40;20.60;99.90
4828;DHT22;2428;48.732;9.148;2022-10-30T10:07:20;20.40;99.90
4828;DHT22;2428;48.732;9.148;2022-10-30T10:09:49;20.40;99.90
4828;DHT22;2428;48.732;9.148;2022-10-30T10:14:53;20.00;99.90
4828;DHT22;2428;48.732;9.148;2022-10-30T10:17:29;20.10;99.90
4828;DHT22;2428;48.732;9.148;2022-10-30T10:19:59;20.10;99.90
4828;DHT22;2428;48.732;9.148;2022-10-30T10:24:55;20.20;99.90
4828;DHT22;2428;48.732;9.148;2022-10-30T10:28:10;20.20;99.90
4828;DHT22;2428;48.732;9.148;2022-10-30T10:30:22;20.40;99.90
4828;DHT22;2428;48.732;9.148;2022-10-30T10:52:12;21.30;99.90
4828;DHT22;2428;48.732;9.148;2022-10-30T10:57:14;21.40;99.90
4828;DHT22;2428;48.732;9.148;2022-10-30T10:59:43;21.40;99.90
4828;DHT22;2428;48.732;9.148;2022-10-30T11:02:33;21.40;99.90
4828;DHT22;2428;48.732;9.148;2022-10-30T11:05:32;21.50;99.90
4828;DHT22;2428;48.732;9.148;2022-10-30T11:08:27;21.50;99.90
4828;DHT22;2428;48.732;9.148;2022-10-30T11:11:03;21.60;99.90
4828;DHT22;2428;48.732;9.148;2022-10-30T11:13:33;21.50;99.90
4828;DHT22;2428;48.732;9.148;2022-10-30T11:18:53;21.60;99.90
4828;DHT22;2428;48.732;9.148;2022-10-30T11:21:24;21.70;99.90
4828;DHT22;2428;48.732;9.148;2022-10-30T11:23:50;21.60;99.90
4828;DHT22;2428;48.732;9.148;2022-10-30T11:28:54;21.70;99.90
4828;DHT22;2428;48.732;9.148;2022-10-30T11:31:24;21.80;99.90
4828;DHT22;2428;48.732;9.148;2022-10-30T11:36:37;21.90;99.90
4828;DHT22;2428;48.732;9.148;2022-10-30T11:39:30;21.90;99.90
4828;DHT22;2428;48.732;9.148;2022-10-30T11:42:12;22.00;99.90
4828;DHT22;2428;48.732;9.148;2022-10-30T11:47:09;22.00;99.90
4828;DHT22;2428;48.732;9.148;2022-10-30T11:52:02;21.90;99.90
4828;DHT22;2428;48.732;9.148;2022-10-30T11:54:37;21.90;99.90
4828;DHT22;2428;48.732;9.148;2022-10-30T11:59:55;21.90;99.90
4828;DHT22;2428;48.732;9.148;2022-10-30T12:02:25;21.80;99.90
4828;DHT22;2428;48.732;9.148;2022-10-30T12:05:01;21.80;99.90
4828;DHT22;2428;48.732;9.148;2022-10-30T12:07:30;21.80;99.90
4828;DHT22;2428;48.732;9.148;2022-10-30T12:09:56;21.70;99.90
4828;DHT22;2428;48.732;9.148;2022-10-30T12:14:52;21.70;99.90
4828;DHT22;2428;48.732;9.148;2022-10-30T12:17:18;21.80;99.90
4828;DHT22;2428;48.732;9.148;2022-10-30T12:19:50;21.80;99.90
4828;DHT22;2428;48.732;9.148;2022-10-30T12:22:29;21.90;99.90
4828;DHT22;2428;48.732;9.148;2022-10-30T12:24:57;21.90;99.90
4828;DHT22;2428;48.732;9.148;2022-10-30T12:27:24;22.00;99.90
4828;DHT22;2428;48.732;9.148;2022-10-30T12:32:37;21.90;99.90
4828;DHT22;2428;48.732;9.148;2022-10-30T12:35:15;21.90;99.90
4828;DHT22;2428;48.732;9.148;2022-10-30T12:37:42;21.90;99.90
4828;DHT22;2428;48.732;9.148;2022-10-30T12:40:23;21.90;99.90
4828;DHT22;2428;48.732;9.148;2022-10-30T12:43:15;21.90;99.90
4828;DHT22;2428;48.732;9.148;2022-10-30T12:45:47;21.90;99.90
4828;DHT22;2428;48.732;9.148;2022-10-30T12:48:36;22.00;99.90
4828;DHT22;2428;48.732;9.148;2022-10-30T12:54:08;22.00;99.90
4828;DHT22;2428;48.732;9.148;2022-10-30T12:56:43;22.00;99.90
4828;DHT22;2428;48.732;9.148;2022-10-30T12:59:35;22.00;99.90
4828;DHT22;2428;48.732;9.148;2022-10-30T13:02:10;21.90;99.90
4828;DHT22;2428;48.732;9.148;2022-10-30T13:04:40;22.00;99.90
4828;DHT22;2428;48.732;9.148;2022-10-30T13:12:30;22.00;99.90
4828;DHT22;2428;48.732;9.148;2022-10-30T13:15:03;22.00;99.90
4828;DHT22;2428;48.732;9.148;2022-10-30T13:17:30;22.00;99.90
4828;DHT22;2428;48.732;9.148;2022-10-30T13:19:56;22.00;99.90
4828;DHT22;2428;48.732;9.148;2022-10-30T13:22:43;22.00;99.90
4828;DHT22;2428;48.732;9.148;2022-10-30T13:30:39;22.00;99.90
4828;DHT22;2428;48.732;9.148;2022-10-30T13:33:27;22.00;99.90
4828;DHT22;2428;48.732;9.148;2022-10-30T13:36:18;22.00;99.90
4828;DHT22;2428;48.732;9.148;2022-10-30T13:52:22;22.10;99.90
4828;DHT22;2428;48.732;9.148;2022-10-30T13:55:23;22.10;99.90
4828;DHT22;2428;48.732;9.148;2022-10-30T13:58:16;22.10;99.90
4828;DHT22;2428;48.732;9.148;2022-10-30T14:06:20;22.20;99.90
4828;DHT22;2428;48.732;9.148;2022-10-30T14:08:54;22.10;99.90
4828;DHT22;2428;48.732;9.148;2022-10-30T14:11:23;22.20;99.90
4828;DHT22;2428;48.732;9.148;2022-10-30T14:13:54;22.10;99.90
4828;DHT22;2428;48.732;9.148;2022-10-30T14:19:12;22.00;99.90
4828;DHT22;2428;48.732;9.148;2022-10-30T14:24:17;21.90;99.90
4828;DHT22;2428;48.732;9.148;2022-10-30T14:26:53;21.90;99.90
4828;DHT22;2428;48.732;9.148;2022-10-30T14:38:06;21.60;99.90
4828;DHT22;2428;48.732;9.148;2022-10-30T14:40:47;21.60;99.90
4828;DHT22;2428;48.732;9.148;2022-10-30T14:43:34;21.50;99.90
4828;DHT22;2428;48.732;9.148;2022-10-30T14:46:24;21.50;99.90
4828;DHT22;2428;48.732;9.148;2022-10-30T14:49:08;21.50;99.90
4828;DHT22;2428;48.732;9.148;2022-10-30T14:51:52;21.40;99.90
4828;DHT22;2428;48.732;9.148;2022-10-30T14:56:50;21.30;99.90
4828;DHT22;2428;48.732;9.148;2022-10-30T15:10:33;20.90;99.90
4828;DHT22;2428;48.732;9.148;2022-10-30T15:13:17;20.90;99.90
4828;DHT22;2428;48.732;9.148;2022-10-30T15:15:44;20.80;99.90
4828;DHT22;2428;48.732;9.148;2022-10-30T15:18:19;20.80;99.90
4828;DHT22;2428;48.732;9.148;2022-10-30T15:20:54;20.70;99.90
4828;DHT22;2428;48.732;9.148;2022-10-30T15:23:27;20.70;99.90
4828;DHT22;2428;48.732;9.148;2022-10-30T15:26:03;20.60;99.90
4828;DHT22;2428;48.732;9.148;2022-10-30T15:28:31;20.60;99.90
4828;DHT22;2428;48.732;9.148;2022-10-30T15:31:23;20.50;99.90
4828;DHT22;2428;48.732;9.148;2022-10-30T15:33:50;20.40;99.90
4828;DHT22;2428;48.732;9.148;2022-10-30T15:41:56;20.20;99.90
4828;DHT22;2428;48.732;9.148;2022-10-30T15:46:52;20.10;99.90
4828;DHT22;2428;48.732;9.148;2022-10-30T15:49:36;20.00;99.90
4828;DHT22;2428;48.732;9.148;2022-10-30T15:52:24;19.90;99.90
4828;DHT22;2428;48.732;9.148;2022-10-30T15:54:56;19.90;99.90
4828;DHT22;2428;48.732;9.148;2022-10-30T15:57:36;19.70;99.90
4828;DHT22;2428;48.732;9.148;2022-10-30T16:00:17;19.70;99.90
4828;DHT22;2428;48.732;9.148;2022-10-30T16:02:46;19.60;99.90
4828;DHT22;2428;48.732;9.148;2022-10-30T16:05:23;19.50;99.90
4828;DHT22;2428;48.732;9.148;2022-10-30T16:07:49;19.40;99.90
4828;DHT22;2428;48.732;9.148;2022-10-30T16:10:17;19.30;99.90
4828;DHT22;2428;48.732;9.148;2022-10-30T16:12:43;19.20;99.90
4828;DHT22;2428;48.732;9.148;2022-10-30T16:15:29;19.10;99.90
4828;DHT22;2428;48.732;9.148;2022-10-30T16:18:12;19.00;99.90
4828;DHT22;2428;48.732;9.148;2022-10-30T16:20:42;19.00;99.90
4828;DHT22;2428;48.732;9.148;2022-10-30T16:23:08;18.90;99.90
4828;DHT22;2428;48.732;9.148;2022-10-30T16:25:34;18.90;99.90
4828;DHT22;2428;48.732;9.148;2022-10-30T16:28:03;18.80;99.90
4828;DHT22;2428;48.732;9.148;2022-10-30T16:30:29;18.70;99.90
4828;DHT22;2428;48.732;9.148;2022-10-30T16:32:57;18.70;99.90
4828;DHT22;2428;48.732;9.148;2022-10-30T16:35:23;18.60;99.90
4828;DHT22;2428;48.732;9.148;2022-10-30T16:37:50;18.50;99.90
4828;DHT22;2428;48.732;9.148;2022-10-30T16:40:24;18.50;99.90
4828;DHT22;2428;48.732;9.148;2022-10-30T16:42:58;18.40;99.90
4828;DHT22;2428;48.732;9.148;2022-10-30T16:48:05;18.30;99.90
4828;DHT22;2428;48.732;9.148;2022-10-30T16:50:34;18.10;99.90
4828;DHT22;2428;48.732;9.148;2022-10-30T16:53:06;18.10;99.90
4828;DHT22;2428;48.732;9.148;2022-10-30T16:55:35;17.90;99.90
4828;DHT22;2428;48.732;9.148;2022-10-30T16:58:03;17.90;99.90
4828;DHT22;2428;48.732;9.148;2022-10-30T17:00:29;17.80;99.90
4828;DHT22;2428;48.732;9.148;2022-10-30T17:02:56;17.70;99.90
4828;DHT22;2428;48.732;9.148;2022-10-30T17:05:26;17.70;99.90
4828;DHT22;2428;48.732;9.148;2022-10-30T17:10:53;17.60;99.90
4828;DHT22;2428;48.732;9.148;2022-10-30T17:13:35;17.50;99.90
4828;DHT22;2428;48.732;9.148;2022-10-30T17:18:44;17.30;99.90
4828;DHT22;2428;48.732;9.148;2022-10-30T17:21:12;17.30;99.90
4828;DHT22;2428;48.732;9.148;2022-10-30T17:23:52;17.30;99.90
4828;DHT22;2428;48.732;9.148;2022-10-30T17:26:19;17.20;99.90
4828;DHT22;2428;48.732;9.148;2022-10-30T17:28:45;17.10;99.90
4828;DHT22;2428;48.732;9.148;2022-10-30T17:33:47;17.00;99.90
4828;DHT22;2428;48.732;9.148;2022-10-30T17:36:27;17.00;99.90
4828;DHT22;2428;48.732;9.148;2022-10-30T17:38:53;16.90;99.90
4828;DHT22;2428;48.732;9.148;2022-10-30T17:41:19;16.90;99.90
4828;DHT22;2428;48.732;9.148;2022-10-30T17:43:50;16.80;99.90
4828;DHT22;2428;48.732;9.148;2022-10-30T17:46:16;16.80;99.90
4828;DHT22;2428;48.732;9.148;2022-10-30T17:48:42;16.80;99.90
4828;DHT22;2428;48.732;9.148;2022-10-30T17:51:12;16.70;99.90
4828;DHT22;2428;48.732;9.148;2022-10-30T17:53:38;16.70;99.90
4828;DHT22;2428;48.732;9.148;2022-10-30T17:56:19;16.70;99.90
4828;DHT22;2428;48.732;9.148;2022-10-30T17:58:46;16.60;99.90
4828;DHT22;2428;48.732;9.148;2022-10-30T18:01:22;16.60;99.90
4828;DHT22;2428;48.732;9.148;2022-10-30T18:03:49;16.50;99.90
4828;DHT22;2428;48.732;9.148;2022-10-30T18:06:17;16.50;99.90
4828;DHT22;2428;48.732;9.148;2022-10-30T18:08:44;16.40;99.90
4828;DHT22;2428;48.732;9.148;2022-10-30T18:11:14;16.40;99.90
4828;DHT22;2428;48.732;9.148;2022-10-30T18:13:41;16.40;99.90
4828;DHT22;2428;48.732;9.148;2022-10-30T18:16:11;16.60;99.90
4828;DHT22;2428;48.732;9.148;2022-10-30T18:18:39;16.40;99.90
4828;DHT22;2428;48.732;9.148;2022-10-30T18:21:05;16.50;99.90
4828;DHT22;2428;48.732;9.148;2022-10-30T18:23:31;16.50;99.90
4828;DHT22;2428;48.732;9.148;2022-10-30T18:25:57;16.50;99.90
4828;DHT22;2428;48.732;9.148;2022-10-30T18:28:22;16.50;99.90
4828;DHT22;2428;48.732;9.148;2022-10-30T18:30:51;16.60;99.90
4828;DHT22;2428;48.732;9.148;2022-10-30T18:33:17;16.50;99.90
4828;DHT22;2428;48.732;9.148;2022-10-30T18:35:43;16.50;99.90
4828;DHT22;2428;48.732;9.148;2022-10-30T18:38:08;16.50;99.90
4828;DHT22;2428;48.732;9.148;2022-10-30T18:40:34;16.40;99.90
4828;DHT22;2428;48.732;9.148;2022-10-30T18:43:00;16.30;99.90
4828;DHT22;2428;48.732;9.148;2022-10-30T18:45:28;16.30;99.90
4828;DHT22;2428;48.732;9.148;2022-10-30T18:47:54;16.30;99.90
4828;DHT22;2428;48.732;9.148;2022-10-30T18:50:21;16.10;99.90
4828;DHT22;2428;48.732;9.148;2022-10-30T18:52:48;16.10;99.90
4828;DHT22;2428;48.732;9.148;2022-10-30T18:57:43;16.00;99.90
4828;DHT22;2428;48.732;9.148;2022-10-30T19:00:10;16.00;99.90
4828;DHT22;2428;48.732;9.148;2022-10-30T19:02:35;15.90;99.90